createdAt,value
2023-07-05T02:16:16.363Z,1.00
2023-07-05T02:18:44.467Z,1.00
2023-07-05T02:21:12.656Z,1.00
2023-07-05T02:23:40.677Z,1.00
2023-07-05T02:26:09.041Z,1.00
2023-07-05T02:28:37.165Z,1.00
2023-07-05T02:31:06.031Z,1.00
2023-07-05T02:33:36.829Z,1.10
2023-07-05T02:36:11.605Z,1.00
2023-07-05T02:38:40.159Z,3.40
2023-07-05T02:41:08.169Z,1.00
2023-07-05T02:43:36.302Z,1.00
2023-07-05T02:46:04.319Z,2.20
2023-07-05T02:48:32.353Z,3.10
2023-07-05T02:51:02.152Z,1.00
2023-07-05T02:53:30.160Z,5.80
2023-07-05T02:55:58.220Z,9.10
2023-07-05T02:58:26.239Z,1.00
2023-07-05T03:00:54.201Z,6.10
2023-07-05T03:03:22.740Z,8.30
2023-07-05T03:05:57.555Z,4.20
2023-07-05T03:08:29.143Z,3.70
2023-07-05T03:10:57.931Z,1.20
2023-07-05T03:13:28.424Z,1.00
2023-07-05T03:15:56.735Z,1.00
2023-07-05T03:18:25.497Z,1.00
2023-07-05T03:20:53.759Z,1.40
2023-07-05T03:23:21.836Z,1.00
2023-07-05T03:25:58.513Z,4.10
2023-07-05T03:28:27.423Z,2.80
2023-07-05T03:30:57.144Z,1.00
2023-07-05T03:33:25.387Z,2.20
2023-07-05T03:35:57.111Z,1.00
2023-07-05T03:38:26.709Z,1.00
2023-07-05T03:41:00.176Z,1.00
2023-07-05T03:43:28.925Z,1.00
2023-07-05T03:45:57.137Z,1.00
2023-07-05T03:48:25.531Z,1.00
2023-07-05T03:50:56.920Z,1.00
2023-07-05T03:53:25.231Z,1.00
2023-07-05T03:55:53.459Z,2.10
2023-07-05T03:58:23.017Z,1.30
2023-07-05T04:00:51.425Z,1.50
2023-07-05T04:03:19.751Z,1.20
2023-07-05T04:05:47.884Z,1.00
2023-07-05T04:08:15.857Z,1.00
2023-07-05T04:10:48.572Z,1.00
2023-07-05T04:13:16.607Z,1.00
2023-07-05T04:15:45.985Z,3.30
2023-07-05T04:18:14.015Z,1.00
2023-07-05T04:20:42.058Z,1.80
2023-07-05T04:23:10.048Z,2.30
2023-07-05T04:25:38.104Z,1.60
2023-07-05T04:28:06.305Z,3.10
2023-07-05T04:30:34.273Z,1.00
2023-07-05T04:33:03.909Z,3.80
2023-07-05T04:35:32.015Z,1.00
2023-07-05T04:38:00.008Z,1.00
2023-07-05T04:40:27.982Z,2.40
2023-07-05T04:42:55.971Z,1.00
2023-07-05T04:45:23.925Z,1.00
2023-07-05T04:47:51.951Z,1.00
2023-07-05T04:50:21.375Z,3.70
2023-07-05T04:52:49.395Z,1.00
2023-07-05T04:55:17.591Z,18.50
2023-07-05T04:57:45.569Z,8.10
2023-07-05T05:00:14.259Z,7.20
2023-07-05T05:02:42.361Z,9.00
2023-07-05T05:05:10.986Z,5.10
2023-07-05T05:07:40.468Z,8.90
2023-07-05T05:10:08.934Z,8.60
2023-07-05T05:12:37.045Z,10.90
2023-07-05T05:15:05.328Z,10.70
2023-07-05T05:17:33.405Z,10.50
2023-07-05T05:20:01.447Z,8.20
2023-07-05T05:22:30.635Z,9.90
2023-07-05T05:24:59.978Z,9.00
2023-07-05T05:27:28.096Z,9.80
2023-07-05T05:29:56.107Z,7.00
2023-07-05T05:32:24.141Z,21.50
2023-07-05T05:34:52.142Z,14.60
2023-07-05T05:37:20.188Z,13.50
2023-07-05T05:39:48.186Z,16.20
2023-07-05T05:42:17.534Z,19.40
2023-07-05T05:44:45.488Z,20.50
2023-07-05T05:47:15.225Z,20.70
2023-07-05T05:49:43.211Z,20.90
2023-07-05T05:52:11.580Z,21.60
2023-07-05T05:54:39.610Z,27.70
2023-07-05T05:57:07.601Z,29.70
2023-07-05T05:59:37.137Z,27.40
2023-07-05T06:02:05.313Z,30.80
2023-07-05T06:04:33.359Z,34.70
2023-07-05T06:07:01.329Z,32.20
2023-07-05T06:09:29.371Z,34.10
2023-07-05T06:11:57.347Z,36.00
2023-07-05T06:14:28.520Z,37.20
2023-07-05T06:16:59.489Z,40.80
2023-07-05T06:19:27.480Z,27.80
2023-07-05T06:21:55.415Z,30.60
2023-07-05T06:24:23.445Z,30.80
2023-07-05T06:26:51.475Z,31.50
2023-07-05T06:29:19.520Z,32.80
2023-07-05T06:31:47.606Z,32.40
2023-07-05T06:34:16.955Z,33.80
2023-07-05T06:36:44.996Z,36.40
2023-07-05T06:39:13.025Z,38.20
2023-07-05T06:41:41.122Z,36.60
2023-07-05T06:44:09.133Z,35.80
2023-07-05T06:46:37.152Z,36.80
2023-07-05T06:49:05.176Z,36.50
2023-07-05T06:51:34.805Z,35.60
2023-07-05T06:54:03.004Z,34.30
2023-07-05T06:56:30.971Z,33.40
2023-07-05T06:58:59.142Z,33.30
2023-07-05T07:01:27.229Z,33.10
2023-07-05T07:03:55.277Z,32.70
2023-07-05T07:06:23.327Z,32.10
2023-07-05T07:08:52.713Z,32.40
2023-07-05T07:11:20.730Z,33.10
2023-07-05T07:13:48.774Z,33.00
2023-07-05T07:16:18.178Z,32.30
2023-07-05T07:18:46.809Z,28.00
2023-07-05T07:21:15.053Z,27.90
2023-07-05T07:23:42.996Z,27.40
2023-07-05T07:26:13.560Z,29.50
2023-07-05T07:28:41.625Z,28.70
2023-07-05T07:31:13.500Z,27.60
2023-07-05T07:33:41.522Z,27.30
2023-07-05T07:36:10.691Z,26.00
2023-07-05T07:38:38.713Z,28.20
2023-07-05T07:41:06.703Z,25.60
2023-07-05T07:43:36.103Z,24.80
2023-07-05T07:46:08.808Z,26.40
2023-07-05T07:48:36.815Z,22.40
2023-07-05T07:51:04.992Z,22.80
2023-07-05T07:53:32.962Z,20.90
2023-07-05T07:56:01.970Z,21.30
2023-07-05T07:58:30.050Z,21.10
2023-07-05T08:00:59.401Z,24.10
2023-07-05T08:03:27.661Z,24.10
2023-07-05T08:05:55.747Z,23.70
2023-07-05T08:08:23.761Z,24.10
2023-07-05T08:10:51.747Z,21.20
2023-07-05T08:13:19.824Z,24.50
2023-07-05T08:15:47.993Z,21.90
2023-07-05T08:18:18.396Z,22.20
2023-07-05T08:20:48.666Z,23.70
2023-07-05T08:23:16.690Z,21.00
2023-07-05T08:25:44.859Z,21.10
2023-07-05T08:28:14.483Z,22.00
2023-07-05T08:30:42.570Z,21.20
2023-07-05T08:33:10.597Z,19.70
2023-07-05T08:35:40.039Z,21.10
2023-07-05T08:38:08.058Z,19.90
2023-07-05T08:40:39.730Z,20.80
2023-07-05T08:43:09.450Z,20.50
2023-07-05T08:45:39.337Z,18.80
2023-07-05T08:48:07.990Z,19.20
2023-07-05T08:51:00.620Z,20.10
2023-07-05T08:53:27.067Z,20.30
2023-07-05T08:55:56.818Z,23.80
2023-07-05T08:58:26.434Z,23.00
2023-07-05T09:00:59.420Z,22.20
2023-07-05T09:03:30.265Z,21.30
2023-07-05T09:06:05.870Z,21.60
2023-07-05T09:08:49.740Z,19.80
2023-07-05T09:11:19.925Z,18.50
2023-07-05T09:13:48.802Z,21.10
2023-07-05T09:16:20.372Z,18.80
2023-07-05T09:18:55.078Z,17.20
2023-07-05T09:21:28.497Z,19.30
2023-07-05T09:24:02.081Z,21.20
2023-07-05T09:26:32.241Z,18.60
2023-07-05T09:29:09.731Z,20.10
2023-07-05T09:31:38.013Z,20.80
2023-07-05T09:34:16.158Z,20.40
2023-07-05T09:36:44.299Z,20.50
2023-07-05T09:39:21.371Z,21.20
2023-07-05T09:41:52.430Z,22.40
2023-07-05T09:44:21.962Z,21.60
2023-07-05T09:46:50.410Z,22.70
2023-07-05T09:49:19.262Z,23.30
2023-07-05T09:51:47.595Z,23.70
2023-07-05T09:54:20.345Z,22.00
2023-07-05T09:56:58.030Z,22.90
2023-07-05T09:59:26.301Z,20.10
2023-07-05T10:01:56.538Z,20.10
2023-07-05T10:04:28.613Z,19.00
2023-07-05T10:06:56.785Z,17.00
2023-07-05T10:09:26.800Z,18.90
2023-07-05T10:11:55.902Z,16.60
2023-07-05T10:14:28.716Z,18.40
2023-07-05T10:16:58.089Z,19.00
2023-07-05T10:19:30.218Z,17.20
2023-07-05T10:22:02.838Z,17.40
2023-07-05T10:24:33.705Z,18.40
2023-07-05T10:27:06.213Z,18.70
2023-07-05T10:29:34.540Z,17.50
2023-07-05T10:32:02.524Z,15.90
2023-07-05T10:34:30.489Z,17.30
2023-07-05T10:36:58.557Z,16.40
2023-07-05T10:39:27.747Z,15.70
2023-07-05T10:42:00.419Z,18.20
2023-07-05T10:44:31.785Z,15.60
2023-07-05T10:47:01.170Z,15.40
2023-07-05T10:49:29.966Z,16.60
2023-07-05T10:52:00.112Z,14.00
2023-07-05T10:54:32.261Z,14.20
2023-07-05T10:57:05.517Z,13.30
2023-07-05T10:59:38.426Z,14.60
2023-07-05T11:02:16.582Z,14.10
2023-07-05T11:04:45.666Z,15.50
2023-07-05T11:07:15.007Z,13.10
2023-07-05T11:09:43.530Z,13.80
2023-07-05T11:12:17.804Z,15.60
2023-07-05T11:14:46.403Z,13.80
2023-07-05T11:17:25.847Z,14.80
2023-07-05T11:19:54.129Z,13.70
2023-07-05T11:22:41.774Z,13.60
2023-07-05T11:25:11.335Z,14.50
2023-07-05T11:27:54.225Z,14.40
2023-07-05T11:30:41.597Z,14.30
2023-07-05T11:33:15.207Z,14.70
2023-07-05T11:35:43.764Z,15.30
2023-07-05T11:38:11.772Z,14.10
2023-07-05T11:41:01.783Z,14.30
2023-07-05T11:43:38.499Z,15.20
2023-07-05T11:46:07.284Z,15.70
2023-07-05T11:48:42.885Z,15.90
2023-07-05T11:51:29.919Z,13.60
2023-07-05T11:54:03.325Z,14.90
2023-07-05T11:56:32.065Z,14.80
2023-07-05T11:59:02.653Z,17.00
2023-07-05T12:01:32.316Z,16.00
2023-07-05T12:04:01.891Z,15.90
2023-07-05T12:06:35.597Z,14.40
2023-07-05T12:09:05.696Z,15.60
2023-07-05T12:11:35.647Z,15.90
2023-07-05T12:14:06.065Z,16.10
2023-07-05T12:16:34.444Z,15.20
2023-07-05T12:19:02.880Z,15.70
2023-07-05T12:21:33.639Z,16.10
2023-07-05T12:24:04.702Z,15.20
2023-07-05T12:26:33.317Z,15.70
2023-07-05T12:29:04.364Z,14.50
2023-07-05T12:31:33.978Z,14.10
2023-07-05T12:34:05.013Z,13.40
2023-07-05T12:36:41.371Z,14.00
2023-07-05T12:39:10.817Z,14.50
2023-07-05T12:41:38.797Z,12.10
2023-07-05T12:44:11.094Z,12.40
2023-07-05T12:46:41.638Z,13.20
2023-07-05T12:49:13.382Z,12.70
2023-07-05T12:51:51.492Z,13.10
2023-07-05T12:54:19.624Z,12.80
2023-07-05T12:56:48.452Z,14.30
2023-07-05T12:59:33.564Z,11.20
2023-07-05T13:02:06.820Z,12.80
2023-07-05T13:04:36.872Z,13.40
2023-07-05T13:07:06.446Z,12.40
2023-07-05T13:09:36.526Z,13.30
2023-07-05T13:12:05.826Z,12.50
2023-07-05T13:14:36.538Z,10.50
2023-07-05T13:17:17.535Z,12.40
2023-07-05T13:19:46.944Z,12.60
2023-07-05T13:22:15.960Z,13.10
2023-07-05T13:24:46.904Z,14.50
2023-07-05T13:27:18.411Z,14.10
2023-07-05T13:29:46.558Z,13.80
2023-07-05T13:32:26.122Z,13.90
2023-07-05T13:34:54.156Z,15.50
2023-07-05T13:37:23.796Z,15.50
2023-07-05T13:39:51.965Z,16.20
2023-07-05T13:42:20.485Z,17.10
2023-07-05T13:44:49.079Z,16.60
2023-07-05T13:47:17.679Z,18.30
2023-07-05T13:49:47.293Z,18.00
2023-07-05T13:52:16.972Z,16.30
2023-07-05T13:54:46.899Z,17.10
2023-07-05T13:57:16.430Z,16.20
2023-07-05T13:59:44.758Z,14.80
2023-07-05T14:02:28.671Z,16.60
2023-07-05T14:04:58.295Z,17.40
2023-07-05T14:07:26.814Z,17.20
2023-07-05T14:09:55.031Z,19.20
2023-07-05T14:12:23.645Z,18.40
2023-07-05T14:14:51.866Z,18.10
2023-07-05T14:17:21.143Z,15.10
2023-07-05T14:19:49.687Z,14.90
2023-07-05T14:22:20.057Z,15.30
2023-07-05T14:24:50.050Z,15.70
2023-07-05T14:27:18.998Z,16.40
2023-07-05T14:29:47.626Z,16.50
2023-07-05T14:32:16.588Z,17.30
2023-07-05T14:34:45.107Z,17.90
2023-07-05T14:37:13.652Z,16.60
2023-07-05T14:39:43.898Z,17.10
2023-07-05T14:42:13.727Z,17.30
2023-07-05T14:44:41.788Z,17.70
2023-07-05T14:47:13.740Z,17.40
2023-07-05T14:49:42.321Z,16.70
2023-07-05T14:52:10.720Z,15.60
2023-07-05T14:54:38.995Z,17.30
2023-07-05T14:57:11.308Z,15.10
2023-07-05T14:59:39.378Z,14.70
2023-07-05T15:02:13.854Z,15.90
2023-07-05T15:04:41.939Z,16.10
2023-07-05T15:07:15.806Z,16.40
2023-07-05T15:09:43.771Z,16.60
2023-07-05T15:12:14.506Z,16.30
2023-07-05T15:14:43.431Z,16.30
2023-07-05T15:17:11.630Z,15.50
2023-07-05T15:19:39.802Z,14.70
2023-07-05T15:22:07.940Z,14.90
2023-07-05T15:24:35.898Z,15.10
2023-07-05T15:27:03.902Z,15.30
2023-07-05T15:29:33.367Z,15.10
2023-07-05T15:32:01.359Z,15.40
2023-07-05T15:34:29.646Z,14.80
2023-07-05T15:36:57.816Z,15.20
2023-07-05T15:39:25.974Z,14.80
2023-07-05T15:41:53.997Z,14.90
2023-07-05T15:44:22.030Z,15.90
2023-07-05T15:46:51.437Z,16.70
2023-07-05T15:49:20.394Z,16.40
2023-07-05T15:51:48.388Z,16.40
2023-07-05T15:54:16.458Z,16.70
2023-07-05T15:56:44.657Z,16.60
2023-07-05T15:59:23.870Z,16.00
2023-07-05T16:01:56.819Z,17.20
2023-07-05T16:04:27.136Z,17.40
2023-07-05T16:06:55.256Z,17.90
2023-07-05T16:09:23.408Z,18.20
2023-07-05T16:11:51.851Z,18.10
2023-07-05T16:14:19.941Z,18.40
2023-07-05T16:16:49.306Z,18.70
2023-07-05T16:19:19.087Z,18.80
2023-07-05T16:21:47.136Z,18.90
2023-07-05T16:24:15.431Z,19.90
2023-07-05T16:26:43.425Z,18.70
2023-07-05T16:29:11.553Z,20.10
2023-07-05T16:31:39.600Z,20.40
2023-07-05T16:34:07.597Z,18.50
2023-07-05T16:36:37.395Z,18.00
2023-07-05T16:39:05.442Z,18.20
2023-07-05T16:41:33.405Z,18.60
2023-07-05T16:44:03.532Z,19.80
2023-07-05T16:46:31.621Z,19.20
2023-07-05T16:48:59.662Z,20.30
2023-07-05T16:51:27.705Z,20.80
2023-07-05T16:53:57.242Z,20.10
2023-07-05T16:56:25.870Z,19.80
2023-07-05T16:58:54.140Z,19.90
2023-07-05T17:01:22.621Z,20.70
2023-07-05T17:03:51.140Z,19.80
2023-07-05T17:06:19.342Z,20.20
2023-07-05T17:08:47.302Z,20.70
2023-07-05T17:11:16.678Z,20.70
2023-07-05T17:13:44.727Z,21.60
2023-07-05T17:16:12.773Z,22.00
2023-07-05T17:18:40.917Z,20.20
2023-07-05T17:21:10.308Z,20.60
2023-07-05T17:23:38.420Z,21.00
2023-07-05T17:26:07.835Z,20.40
2023-07-05T17:28:38.472Z,20.60
2023-07-05T17:31:07.509Z,21.30
2023-07-05T17:33:35.644Z,21.10
2023-07-05T17:36:04.954Z,21.20
2023-07-05T17:38:34.764Z,22.20
2023-07-05T17:41:02.972Z,22.00
2023-07-05T17:43:32.067Z,21.70
2023-07-05T17:46:15.423Z,21.80
2023-07-05T17:48:45.337Z,21.50
2023-07-05T17:51:13.432Z,21.70
2023-07-05T17:53:41.419Z,21.30
2023-07-05T17:56:10.694Z,22.40
2023-07-05T17:58:39.712Z,22.40
2023-07-05T18:01:10.152Z,22.60
2023-07-05T18:03:40.310Z,22.30
2023-07-05T18:06:08.805Z,22.80
2023-07-05T18:08:37.049Z,23.00
2023-07-05T18:11:06.128Z,22.90
2023-07-05T18:13:35.001Z,23.20
2023-07-05T18:16:03.821Z,23.50
2023-07-05T18:18:32.582Z,23.50
2023-07-05T18:21:02.683Z,24.00
2023-07-05T18:23:31.362Z,24.20
2023-07-05T18:26:00.225Z,25.40
2023-07-05T18:28:28.356Z,24.60
2023-07-05T18:30:57.363Z,25.10
2023-07-05T18:33:26.193Z,25.30
2023-07-05T18:35:56.903Z,26.10
2023-07-05T18:38:27.163Z,25.90
2023-07-05T18:40:57.600Z,25.60
2023-07-05T18:43:26.048Z,26.10
2023-07-05T18:45:55.242Z,26.90
2023-07-05T18:48:24.208Z,27.90
2023-07-05T18:50:53.111Z,27.20
2023-07-05T18:53:21.538Z,27.90
2023-07-05T18:55:56.411Z,28.50
2023-07-05T18:58:25.516Z,29.70
2023-07-05T19:00:57.752Z,32.50
2023-07-05T19:03:26.359Z,31.70
2023-07-05T19:05:57.965Z,31.00
2023-07-05T19:08:29.160Z,30.40
2023-07-05T19:10:59.219Z,32.60
2023-07-05T19:13:27.346Z,31.50
2023-07-05T19:15:55.597Z,32.70
2023-07-05T19:18:24.820Z,32.70
2023-07-05T19:20:52.789Z,33.00
2023-07-05T19:23:20.790Z,33.70
2023-07-05T19:25:48.772Z,33.20
2023-07-05T19:28:18.199Z,32.90
2023-07-05T19:30:47.228Z,33.00
2023-07-05T19:33:15.238Z,33.10
2023-07-05T19:35:43.756Z,32.80
2023-07-05T19:38:12.571Z,33.70
2023-07-05T19:40:40.841Z,33.40
2023-07-05T19:43:08.835Z,34.10
2023-07-05T19:45:38.330Z,33.90
2023-07-05T19:48:06.675Z,34.60
2023-07-05T19:50:38.454Z,35.00
2023-07-05T19:53:08.260Z,35.20
2023-07-05T19:55:36.875Z,37.60
2023-07-05T19:58:05.358Z,37.40
2023-07-05T20:00:34.072Z,36.60
2023-07-05T20:03:03.950Z,37.70
2023-07-05T20:05:32.946Z,36.30
2023-07-05T20:08:00.944Z,36.50
2023-07-05T20:10:29.008Z,39.70
2023-07-05T20:12:57.598Z,36.40
2023-07-05T20:15:25.875Z,36.10
2023-07-05T20:17:55.221Z,37.50
2023-07-05T20:20:24.883Z,33.80
2023-07-05T20:22:52.929Z,30.90
2023-07-05T20:25:21.503Z,30.20
2023-07-05T20:27:51.617Z,30.10
2023-07-05T20:30:20.492Z,30.00
2023-07-05T20:32:48.875Z,30.30
2023-07-05T20:35:17.658Z,29.00
2023-07-05T20:37:59.349Z,27.80
2023-07-05T20:40:30.334Z,27.20
2023-07-05T20:42:58.787Z,27.20
2023-07-05T20:45:27.498Z,24.80
2023-07-05T20:47:55.604Z,21.70
2023-07-05T20:50:23.733Z,20.90
2023-07-05T20:52:53.084Z,20.00
2023-07-05T20:55:21.129Z,24.80
2023-07-05T20:57:49.089Z,25.40
2023-07-05T21:00:18.145Z,25.30
2023-07-05T21:02:46.175Z,26.60
2023-07-05T21:05:15.666Z,23.30
2023-07-05T21:07:43.844Z,10.20
2023-07-05T21:10:13.830Z,11.40
2023-07-05T21:12:43.325Z,9.70
2023-07-05T21:15:11.716Z,9.10
2023-07-05T21:17:39.721Z,8.70
2023-07-05T21:20:09.885Z,7.50
2023-07-05T21:22:37.961Z,3.20
2023-07-05T21:25:06.318Z,4.00
2023-07-05T21:27:35.676Z,5.60
2023-07-05T21:30:03.899Z,7.20
2023-07-05T21:32:31.893Z,6.90
2023-07-05T21:34:59.900Z,7.90
2023-07-05T21:37:27.864Z,9.60
2023-07-05T21:39:55.838Z,10.10
2023-07-05T21:42:23.800Z,10.20
2023-07-05T21:44:53.323Z,5.60
2023-07-05T21:47:21.362Z,7.00
2023-07-05T21:49:49.354Z,6.20
2023-07-05T21:52:17.346Z,4.80
2023-07-05T21:54:45.329Z,12.10
2023-07-05T21:57:15.182Z,14.50
2023-07-05T21:59:43.242Z,9.90
2023-07-05T22:02:13.207Z,9.50
2023-07-05T22:04:41.664Z,11.30
2023-07-05T22:07:10.994Z,12.90
2023-07-05T22:09:39.389Z,13.10
2023-07-05T22:12:07.956Z,12.70
2023-07-05T22:14:36.050Z,14.10
2023-07-05T22:17:05.009Z,15.00
2023-07-05T22:19:34.849Z,16.20
2023-07-05T22:22:04.542Z,14.60
2023-07-05T22:24:32.747Z,11.60
2023-07-05T22:27:01.089Z,13.20
2023-07-05T22:29:29.293Z,14.20
2023-07-05T22:31:57.324Z,15.00
2023-07-05T22:34:26.138Z,14.80
2023-07-05T22:36:55.571Z,15.70
2023-07-05T22:39:23.586Z,16.10
2023-07-05T22:41:51.539Z,15.70
2023-07-05T22:44:19.532Z,6.90
2023-07-05T22:46:47.536Z,11.00
2023-07-05T22:49:15.556Z,11.60
2023-07-05T22:51:43.554Z,11.00
2023-07-05T22:54:12.972Z,13.20
2023-07-05T22:56:41.086Z,14.40
2023-07-05T22:59:09.080Z,10.20
2023-07-05T23:01:37.088Z,7.50
2023-07-05T23:04:05.814Z,6.50
2023-07-05T23:06:34.044Z,9.70
2023-07-05T23:09:02.037Z,10.60
2023-07-05T23:11:31.407Z,9.20
2023-07-05T23:13:59.444Z,9.10
2023-07-05T23:16:27.804Z,11.30
2023-07-05T23:18:55.793Z,10.40
2023-07-05T23:21:24.788Z,6.50
2023-07-05T23:23:52.735Z,2.60
2023-07-05T23:26:22.166Z,5.20
2023-07-05T23:28:53.309Z,7.30
2023-07-05T23:31:23.573Z,1.40
2023-07-05T23:33:51.726Z,4.60
2023-07-05T23:36:23.816Z,3.50
2023-07-05T23:38:52.387Z,2.80
2023-07-05T23:41:20.502Z,2.40
2023-07-05T23:43:49.853Z,1.00
2023-07-05T23:46:19.743Z,1.00
2023-07-05T23:48:47.867Z,1.00
2023-07-05T23:51:15.879Z,1.00
2023-07-05T23:53:43.831Z,1.00
2023-07-05T23:56:11.826Z,2.80
2023-07-05T23:58:39.923Z,1.00
